Time;durP1;ratioP1;P1;durP2;ratioP2;P2;SDS_P1;SDS_P2;PMS_P1;PMS_P2;Temp;Humidity;BMP_temperature;BMP_pressure;BME280_temperature;BME280_humidity;BME280_pressure;Samples;Min_cycle;Max_cycle;Signal;HPM_P1;HPM_P2
2021/06/26 00:01:05;;;;;;;;;;;23.40;99.90;;;;;;5112274;28;19958;-75
2021/06/26 00:03:31;;;;;;;;;;;23.30;99.90;;;;;;5108334;28;19912;-75
2021/06/26 00:05:57;;;;;;;;;;;23.30;99.90;;;;;;5121880;27;19922;-75
2021/06/26 00:08:23;;;;;;;;;;;23.30;99.90;;;;;;5114585;28;19911;-75
2021/06/26 00:10:49;;;;;;;;;;;23.10;99.90;;;;;;5108985;28;19911;-75
2021/06/26 00:13:15;;;;;;;;;;;23.20;99.90;;;;;;5121498;28;20008;-76
2021/06/26 00:15:41;;;;;;;;;;;23.20;99.90;;;;;;5110000;28;19912;-76
2021/06/26 00:18:07;;;;;;;;;;;23.40;99.90;;;;;;5119818;28;20626;-76
2021/06/26 00:20:33;;;;;;;;;;;23.30;99.90;;;;;;5105898;27;19960;-76
2021/06/26 00:22:58;;;;;;;;;;;23.30;99.90;;;;;;5109542;28;20297;-75
2021/06/26 00:25:25;;;;;;;;;;;23.40;99.90;;;;;;5118114;28;19911;-75
2021/06/26 00:27:51;;;;;;;;;;;23.30;99.90;;;;;;5125280;28;20042;-76
2021/06/26 00:30:17;;;;;;;;;;;23.20;99.90;;;;;;5111244;28;19912;-76
2021/06/26 00:32:43;;;;;;;;;;;23.20;99.90;;;;;;5117514;27;19919;-76
2021/06/26 00:35:09;;;;;;;;;;;23.10;99.90;;;;;;5115471;27;19920;-76
2021/06/26 00:37:35;;;;;;;;;;;23.10;99.90;;;;;;5109984;27;20337;-76
2021/06/26 00:40:00;;;;;;;;;;;23.10;99.90;;;;;;5112050;27;20007;-75
2021/06/26 00:42:36;;;;;;;;;;;23.10;99.90;;;;;;5102757;27;20405;-75
2021/06/26 00:45:04;;;;;;;;;;;23.20;99.90;;;;;;5117691;27;20370;-76
2021/06/26 00:47:29;;;;;;;;;;;23.20;99.90;;;;;;5104090;28;19920;-75
2021/06/26 00:49:55;;;;;;;;;;;23.30;99.90;;;;;;5112593;27;20285;-76
2021/06/26 00:52:20;;;;;;;;;;;23.30;99.90;;;;;;5111897;27;19911;-76
2021/06/26 00:54:46;;;;;;;;;;;23.30;99.90;;;;;;5114714;27;20407;-75
2021/06/26 00:57:12;;;;;;;;;;;23.30;99.90;;;;;;5124646;27;19916;-76
2021/06/26 00:59:38;;;;;;;;;;;23.20;99.90;;;;;;5109145;27;20297;-76
2021/06/26 01:02:06;;;;;;;;;;;23.20;99.90;;;;;;5117260;27;20364;-76
2021/06/26 01:04:32;;;;;;;;;;;23.30;99.90;;;;;;5109874;27;20322;-76
2021/06/26 01:06:58;;;;;;;;;;;23.30;99.90;;;;;;5117930;27;19916;-76
2021/06/26 01:09:23;;;;;;;;;;;23.20;99.90;;;;;;5114111;27;19912;-76
2021/06/26 01:11:49;;;;;;;;;;;23.30;99.90;;;;;;5108341;27;20002;-76
2021/06/26 01:14:14;;;;;;;;;;;23.20;99.90;;;;;;5116840;27;19912;-76
2021/06/26 01:16:40;;;;;;;;;;;23.00;99.90;;;;;;5126023;27;19996;-76
2021/06/26 01:19:06;;;;;;;;;;;22.90;99.90;;;;;;5112346;28;19924;-76
2021/06/26 01:21:34;;;;;;;;;;;23.00;99.90;;;;;;5119443;27;19920;-78
2021/06/26 01:23:59;;;;;;;;;;;22.90;99.90;;;;;;5119987;27;19998;-77
2021/06/26 01:26:28;;;;;;;;;;;22.80;99.90;;;;;;5114290;27;20339;-77
2021/06/26 01:28:56;;;;;;;;;;;22.90;99.90;;;;;;5114364;27;20414;-77
2021/06/26 01:31:22;;;;;;;;;;;22.90;99.90;;;;;;5118239;27;20052;-76
2021/06/26 01:33:47;;;;;;;;;;;22.80;99.90;;;;;;5126291;27;19968;-77
2021/06/26 01:36:13;;;;;;;;;;;22.70;99.90;;;;;;5097117;28;19961;-77
2021/06/26 01:38:39;;;;;;;;;;;22.50;99.90;;;;;;5121384;27;20546;-77
2021/06/26 01:41:04;;;;;;;;;;;22.50;99.90;;;;;;5121378;27;19912;-75
2021/06/26 01:43:30;;;;;;;;;;;22.30;99.90;;;;;;5113157;27;19984;-75
2021/06/26 01:45:55;;;;;;;;;;;22.30;99.90;;;;;;5117550;27;19915;-75
2021/06/26 01:48:22;;;;;;;;;;;22.40;99.90;;;;;;5118848;27;20003;-75
2021/06/26 01:50:47;;;;;;;;;;;22.50;99.90;;;;;;5117048;27;20485;-75
2021/06/26 01:53:15;;;;;;;;;;;22.50;99.90;;;;;;5116973;27;19938;-75
2021/06/26 01:55:41;;;;;;;;;;;22.50;99.90;;;;;;5113172;27;20042;-76
2021/06/26 01:58:06;;;;;;;;;;;22.50;99.90;;;;;;5123963;27;19957;-76
2021/06/26 02:00:32;;;;;;;;;;;22.60;99.90;;;;;;5113200;27;19927;-75
2021/06/26 02:02:58;;;;;;;;;;;22.60;99.90;;;;;;5120057;27;19915;-75
2021/06/26 02:05:23;;;;;;;;;;;22.60;99.90;;;;;;5109541;27;20011;-75
2021/06/26 02:07:50;;;;;;;;;;;22.60;99.90;;;;;;5111387;27;19915;-75
2021/06/26 02:10:15;;;;;;;;;;;22.40;99.90;;;;;;5112902;27;19912;-76
2021/06/26 02:12:41;;;;;;;;;;;22.40;99.90;;;;;;5123141;27;19919;-76
2021/06/26 02:15:08;;;;;;;;;;;22.20;99.90;;;;;;5121756;27;19947;-76
2021/06/26 02:17:34;;;;;;;;;;;22.10;99.90;;;;;;5113126;27;19933;-76
2021/06/26 02:19:59;;;;;;;;;;;22.20;99.90;;;;;;5119343;27;20341;-78
2021/06/26 02:22:25;;;;;;;;;;;22.20;99.90;;;;;;5111157;27;19912;-76
2021/06/26 02:24:50;;;;;;;;;;;22.30;99.90;;;;;;5117790;27;19912;-76
2021/06/26 02:27:16;;;;;;;;;;;22.30;99.90;;;;;;5112029;28;19908;-76
2021/06/26 02:29:41;;;;;;;;;;;22.30;99.90;;;;;;5110179;27;19912;-76
2021/06/26 02:32:07;;;;;;;;;;;22.40;99.90;;;;;;5123200;27;19912;-76
2021/06/26 02:34:33;;;;;;;;;;;22.60;99.90;;;;;;5113471;27;19911;-75
2021/06/26 02:36:59;;;;;;;;;;;22.70;99.90;;;;;;5114744;27;19962;-75
2021/06/26 02:39:24;;;;;;;;;;;22.60;99.90;;;;;;5096142;28;19919;-75
2021/06/26 02:41:50;;;;;;;;;;;22.50;99.90;;;;;;5108739;28;20377;-75
2021/06/26 02:44:16;;;;;;;;;;;22.60;99.90;;;;;;5113372;27;19923;-75
2021/06/26 02:46:41;;;;;;;;;;;22.60;99.90;;;;;;5113383;27;19951;-74
2021/06/26 02:49:07;;;;;;;;;;;22.60;99.90;;;;;;5104211;27;19911;-76
2021/06/26 02:51:32;;;;;;;;;;;22.60;99.90;;;;;;5109491;27;20281;-75
2021/06/26 02:53:58;;;;;;;;;;;22.70;99.90;;;;;;5119250;27;20015;-77
2021/06/26 02:56:23;;;;;;;;;;;22.80;99.90;;;;;;5111789;27;19912;-75
2021/06/26 02:58:49;;;;;;;;;;;22.80;99.90;;;;;;5109434;27;20292;-75
2021/06/26 03:01:15;;;;;;;;;;;22.70;99.90;;;;;;5111746;27;19938;-76
2021/06/26 03:03:40;;;;;;;;;;;22.70;99.90;;;;;;5121128;27;19997;-75
2021/06/26 03:06:06;;;;;;;;;;;22.60;99.90;;;;;;5117901;27;20010;-75
2021/06/26 03:08:31;;;;;;;;;;;22.60;99.90;;;;;;5113433;28;20349;-75
2021/06/26 03:10:57;;;;;;;;;;;22.60;99.90;;;;;;5115343;27;19980;-75
2021/06/26 03:13:22;;;;;;;;;;;22.60;99.90;;;;;;5104054;27;19918;-75
2021/06/26 03:15:48;;;;;;;;;;;22.60;99.90;;;;;;5123610;27;19923;-75
2021/06/26 03:18:14;;;;;;;;;;;22.60;99.90;;;;;;5121428;27;20369;-75
2021/06/26 03:20:40;;;;;;;;;;;22.60;99.90;;;;;;5114028;27;19920;-76
2021/06/26 03:23:06;;;;;;;;;;;22.50;99.90;;;;;;5110389;27;19956;-76
2021/06/26 03:25:31;;;;;;;;;;;22.60;99.90;;;;;;5119458;27;19912;-76
2021/06/26 03:27:57;;;;;;;;;;;22.60;99.90;;;;;;5118565;28;19993;-75
2021/06/26 03:30:23;;;;;;;;;;;22.80;99.90;;;;;;5111094;28;20376;-75
2021/06/26 03:32:48;;;;;;;;;;;22.80;99.90;;;;;;5110278;28;19916;-76
2021/06/26 03:35:14;;;;;;;;;;;22.70;99.90;;;;;;5107497;27;19911;-76
2021/06/26 03:37:40;;;;;;;;;;;22.50;99.90;;;;;;5110086;28;20380;-76
2021/06/26 03:40:06;;;;;;;;;;;22.50;99.90;;;;;;5110348;28;19990;-75
2021/06/26 03:42:32;;;;;;;;;;;22.40;99.90;;;;;;5103285;28;20014;-75
2021/06/26 03:44:57;;;;;;;;;;;22.40;99.90;;;;;;5116882;28;20003;-75
2021/06/26 03:47:25;;;;;;;;;;;22.40;99.90;;;;;;5100861;28;19955;-75
2021/06/26 03:49:50;;;;;;;;;;;22.50;99.90;;;;;;5086185;28;20368;-76
2021/06/26 03:52:16;;;;;;;;;;;22.40;99.90;;;;;;5112281;28;20046;-75
2021/06/26 03:54:41;;;;;;;;;;;22.40;99.90;;;;;;5096261;28;19912;-75
2021/06/26 03:57:07;;;;;;;;;;;22.40;99.90;;;;;;5118256;28;19937;-75
2021/06/26 03:59:32;;;;;;;;;;;22.30;99.90;;;;;;5115319;27;20392;-76
2021/06/26 04:01:58;;;;;;;;;;;22.30;99.90;;;;;;5112286;28;20272;-75
2021/06/26 04:04:24;;;;;;;;;;;22.20;99.90;;;;;;5112612;28;19923;-76
2021/06/26 04:06:49;;;;;;;;;;;22.10;99.90;;;;;;5121282;28;19912;-76
2021/06/26 04:09:15;;;;;;;;;;;22.20;99.90;;;;;;5111544;27;19915;-76
2021/06/26 04:11:40;;;;;;;;;;;22.10;99.90;;;;;;5105853;27;19911;-75
2021/06/26 04:14:06;;;;;;;;;;;22.10;99.90;;;;;;5120862;27;19968;-75
2021/06/26 04:16:32;;;;;;;;;;;22.00;99.90;;;;;;5115328;27;20397;-75
2021/06/26 04:18:57;;;;;;;;;;;22.10;99.90;;;;;;5121519;27;19912;-75
2021/06/26 04:21:23;;;;;;;;;;;22.20;99.90;;;;;;5126468;27;19919;-76
2021/06/26 04:23:48;;;;;;;;;;;22.20;99.90;;;;;;5121681;27;19930;-75
2021/06/26 04:26:14;;;;;;;;;;;22.20;99.90;;;;;;5118089;27;20329;-76
2021/06/26 04:28:40;;;;;;;;;;;22.20;99.90;;;;;;5121622;27;19912;-76
2021/06/26 04:31:05;;;;;;;;;;;22.20;99.90;;;;;;5117129;27;19947;-76
2021/06/26 04:33:31;;;;;;;;;;;22.30;99.90;;;;;;5110956;27;19965;-75
2021/06/26 04:35:56;;;;;;;;;;;22.50;99.90;;;;;;5116581;27;19919;-76
2021/06/26 04:38:22;;;;;;;;;;;22.60;99.90;;;;;;5120353;27;20385;-75
2021/06/26 04:40:51;;;;;;;;;;;22.70;99.90;;;;;;5121164;27;19919;-75
2021/06/26 04:43:17;;;;;;;;;;;22.80;99.90;;;;;;5119839;27;20285;-76
2021/06/26 04:45:47;;;;;;;;;;;22.90;99.90;;;;;;5114608;27;19912;-74
2021/06/26 04:48:15;;;;;;;;;;;23.00;99.90;;;;;;5100066;28;19912;-75
2021/06/26 04:50:41;;;;;;;;;;;23.10;99.90;;;;;;5121861;27;20293;-75
2021/06/26 04:53:07;;;;;;;;;;;23.20;99.90;;;;;;5113668;27;19934;-76
2021/06/26 04:55:32;;;;;;;;;;;23.30;99.90;;;;;;5116693;27;19923;-75
2021/06/26 04:57:58;;;;;;;;;;;23.40;99.90;;;;;;5114263;27;19916;-75
2021/06/26 05:00:23;;;;;;;;;;;23.50;99.90;;;;;;5106964;27;20293;-76
2021/06/26 05:02:49;;;;;;;;;;;23.50;99.90;;;;;;5119985;27;19911;-76
2021/06/26 05:05:14;;;;;;;;;;;23.60;99.90;;;;;;5111743;28;20381;-75
2021/06/26 05:07:40;;;;;;;;;;;23.70;99.90;;;;;;5116679;27;19919;-75
2021/06/26 05:10:06;;;;;;;;;;;23.70;99.90;;;;;;5120955;27;19920;-75
2021/06/26 05:12:31;;;;;;;;;;;23.80;99.90;;;;;;5112474;28;19911;-75
2021/06/26 05:14:57;;;;;;;;;;;23.80;99.90;;;;;;5119398;27;19995;-75
2021/06/26 05:17:22;;;;;;;;;;;23.80;99.90;;;;;;5121614;27;19907;-75
2021/06/26 05:19:48;;;;;;;;;;;23.90;99.90;;;;;;5116310;27;19927;-75
2021/06/26 05:22:14;;;;;;;;;;;24.00;99.90;;;;;;5115877;27;19957;-75
2021/06/26 05:24:40;;;;;;;;;;;24.10;99.90;;;;;;5114889;27;20323;-75
2021/06/26 05:27:06;;;;;;;;;;;24.10;99.90;;;;;;5115752;27;19926;-75
2021/06/26 05:29:32;;;;;;;;;;;24.20;99.90;;;;;;5121438;27;19930;-75
2021/06/26 05:31:57;;;;;;;;;;;24.30;99.90;;;;;;5100334;27;19907;-75
2021/06/26 05:34:23;;;;;;;;;;;24.40;99.90;;;;;;5110345;27;20014;-75
2021/06/26 05:36:49;;;;;;;;;;;24.40;99.90;;;;;;5114109;27;20601;-75
2021/06/26 05:39:15;;;;;;;;;;;24.60;99.90;;;;;;5115835;27;19916;-76
2021/06/26 05:41:40;;;;;;;;;;;24.70;99.90;;;;;;5095075;28;19977;-75
2021/06/26 05:44:06;;;;;;;;;;;24.80;99.90;;;;;;5095863;27;19923;-75
2021/06/26 05:46:31;;;;;;;;;;;25.00;99.90;;;;;;5101994;28;20463;-75
2021/06/26 05:48:57;;;;;;;;;;;25.10;99.90;;;;;;5111257;27;19912;-74
2021/06/26 05:51:23;;;;;;;;;;;25.20;99.90;;;;;;5118088;27;20005;-75
2021/06/26 05:53:49;;;;;;;;;;;25.20;99.90;;;;;;5101555;28;19934;-76
2021/06/26 05:56:14;;;;;;;;;;;25.30;99.90;;;;;;5114881;27;19919;-75
2021/06/26 05:58:40;;;;;;;;;;;25.30;99.90;;;;;;5118933;27;20289;-75
2021/06/26 06:01:06;;;;;;;;;;;25.30;99.90;;;;;;5107073;27;19920;-76
2021/06/26 06:03:32;;;;;;;;;;;25.30;99.90;;;;;;5115198;27;19911;-75
2021/06/26 06:05:58;;;;;;;;;;;25.30;99.90;;;;;;5084526;28;20332;-76
2021/06/26 06:08:24;;;;;;;;;;;25.30;99.90;;;;;;5112084;27;19911;-75
2021/06/26 06:10:49;;;;;;;;;;;25.40;99.90;;;;;;5124418;27;19957;-75
2021/06/26 06:13:16;;;;;;;;;;;25.30;99.90;;;;;;5115243;27;20425;-75
2021/06/26 06:15:42;;;;;;;;;;;25.40;99.90;;;;;;5104509;28;19988;-75
2021/06/26 06:18:08;;;;;;;;;;;25.50;99.90;;;;;;5116816;27;20418;-75
2021/06/26 06:20:33;;;;;;;;;;;25.60;99.90;;;;;;5101268;28;20018;-76
2021/06/26 06:22:59;;;;;;;;;;;25.70;99.90;;;;;;5115124;27;19928;-75
2021/06/26 06:25:25;;;;;;;;;;;25.70;99.90;;;;;;5123906;27;19947;-75
2021/06/26 06:27:50;;;;;;;;;;;25.80;99.90;;;;;;5111627;28;19985;-75
2021/06/26 06:30:18;;;;;;;;;;;25.90;99.90;;;;;;5115605;27;20336;-75
2021/06/26 06:32:43;;;;;;;;;;;26.00;99.90;;;;;;5110789;28;19919;-75
2021/06/26 06:35:09;;;;;;;;;;;26.10;99.90;;;;;;5118692;27;19914;-75
2021/06/26 06:37:36;;;;;;;;;;;26.10;99.90;;;;;;5120289;27;19915;-74
2021/06/26 06:40:01;;;;;;;;;;;26.10;99.90;;;;;;5122229;27;19914;-75
2021/06/26 06:42:27;;;;;;;;;;;26.10;99.90;;;;;;5111740;27;19912;-75
2021/06/26 06:44:53;;;;;;;;;;;26.20;99.90;;;;;;5115823;27;19922;-74
2021/06/26 06:47:18;;;;;;;;;;;26.30;99.90;;;;;;5112278;27;20006;-75
2021/06/26 06:49:44;;;;;;;;;;;26.30;99.90;;;;;;5111345;27;19919;-75
2021/06/26 06:52:09;;;;;;;;;;;26.40;99.90;;;;;;5121746;27;19956;-74
2021/06/26 06:54:35;;;;;;;;;;;26.50;99.90;;;;;;5121737;27;19911;-74
2021/06/26 06:57:00;;;;;;;;;;;26.50;99.90;;;;;;5108856;28;19908;-74
2021/06/26 06:59:26;;;;;;;;;;;26.50;99.90;;;;;;5109238;27;19916;-74
2021/06/26 07:01:52;;;;;;;;;;;26.60;99.90;;;;;;5108216;28;19911;-75
2021/06/26 07:04:17;;;;;;;;;;;26.70;99.90;;;;;;5121048;27;19972;-74
2021/06/26 07:06:43;;;;;;;;;;;26.60;99.90;;;;;;5130931;27;19953;-74
2021/06/26 07:09:08;;;;;;;;;;;26.70;99.90;;;;;;5111438;27;20288;-74
2021/06/26 07:11:34;;;;;;;;;;;26.80;99.90;;;;;;5108474;27;20381;-74
2021/06/26 07:13:59;;;;;;;;;;;26.80;99.90;;;;;;5116863;27;19916;-73
2021/06/26 07:16:25;;;;;;;;;;;26.50;99.90;;;;;;5114397;27;19998;-73
2021/06/26 07:18:50;;;;;;;;;;;26.50;99.90;;;;;;5128075;27;20426;-74
2021/06/26 07:21:16;;;;;;;;;;;26.50;99.90;;;;;;5118144;28;19919;-69
2021/06/26 07:23:41;;;;;;;;;;;26.50;99.90;;;;;;5107041;28;19915;-73
2021/06/26 07:26:07;;;;;;;;;;;26.70;99.90;;;;;;5124277;27;19915;-73
2021/06/26 07:28:33;;;;;;;;;;;26.60;99.90;;;;;;5119373;27;19973;-73
2021/06/26 07:30:58;;;;;;;;;;;26.70;99.90;;;;;;5120056;28;19915;-74
2021/06/26 07:33:24;;;;;;;;;;;26.80;99.90;;;;;;5100604;28;19919;-73
2021/06/26 07:35:49;;;;;;;;;;;26.90;99.90;;;;;;5111042;28;19919;-72
2021/06/26 07:38:15;;;;;;;;;;;26.80;99.90;;;;;;5106012;28;19913;-70
2021/06/26 07:40:41;;;;;;;;;;;26.90;99.90;;;;;;5098720;28;19911;-69
2021/06/26 07:43:06;;;;;;;;;;;27.00;99.90;;;;;;5116872;28;19912;-71
2021/06/26 07:45:32;;;;;;;;;;;27.20;99.90;;;;;;5121510;27;20266;-70
2021/06/26 07:47:58;;;;;;;;;;;27.30;99.90;;;;;;5118206;27;20365;-71
2021/06/26 07:50:23;;;;;;;;;;;27.40;99.90;;;;;;5115965;27;19919;-70
2021/06/26 07:52:49;;;;;;;;;;;27.50;99.90;;;;;;5119626;27;19911;-70
2021/06/26 07:55:14;;;;;;;;;;;27.60;99.90;;;;;;5127134;27;19907;-70
2021/06/26 07:57:40;;;;;;;;;;;27.60;99.90;;;;;;5118194;27;19911;-73
2021/06/26 08:00:06;;;;;;;;;;;27.60;99.90;;;;;;5120619;27;19916;-71
2021/06/26 08:02:32;;;;;;;;;;;27.50;99.90;;;;;;5113079;27;20613;-72
2021/06/26 08:04:57;;;;;;;;;;;27.60;99.90;;;;;;5123033;27;20014;-73
2021/06/26 08:07:23;;;;;;;;;;;27.70;99.90;;;;;;5132002;27;19907;-72
2021/06/26 08:09:49;;;;;;;;;;;27.80;99.90;;;;;;5115416;27;19912;-73
2021/06/26 08:12:17;;;;;;;;;;;28.00;99.90;;;;;;5118058;27;20410;-75
2021/06/26 08:14:43;;;;;;;;;;;28.10;99.90;;;;;;5126780;27;20491;-72
2021/06/26 08:17:12;;;;;;;;;;;28.10;99.90;;;;;;5117742;27;19928;-70
2021/06/26 08:19:38;;;;;;;;;;;27.90;99.90;;;;;;5124633;27;19916;-69
2021/06/26 08:22:05;;;;;;;;;;;27.80;99.90;;;;;;5122264;27;19943;-69
2021/06/26 08:24:31;;;;;;;;;;;27.90;99.90;;;;;;5117767;27;20380;-69
2021/06/26 08:26:57;;;;;;;;;;;28.00;99.90;;;;;;5131891;27;19919;-69
2021/06/26 08:29:22;;;;;;;;;;;28.00;99.90;;;;;;5116018;27;19912;-69
2021/06/26 08:31:48;;;;;;;;;;;28.00;99.90;;;;;;5110308;27;19932;-68
2021/06/26 08:34:14;;;;;;;;;;;28.00;99.90;;;;;;5128463;27;20357;-69
2021/06/26 08:36:39;;;;;;;;;;;28.00;99.90;;;;;;5121387;27;20303;-68
2021/06/26 08:39:05;;;;;;;;;;;28.10;99.90;;;;;;5118898;27;19919;-70
2021/06/26 08:41:32;;;;;;;;;;;28.20;99.90;;;;;;5109328;27;19942;-69
2021/06/26 08:43:59;;;;;;;;;;;28.30;99.90;;;;;;5120654;27;19911;-68
2021/06/26 08:46:26;;;;;;;;;;;28.50;99.90;;;;;;5115795;27;19919;-70
2021/06/26 08:48:52;;;;;;;;;;;28.50;99.90;;;;;;5117974;27;19912;-69
2021/06/26 08:51:18;;;;;;;;;;;28.50;99.90;;;;;;5118764;27;20002;-68
2021/06/26 08:53:43;;;;;;;;;;;28.40;99.90;;;;;;5118630;27;19919;-68
2021/06/26 08:56:11;;;;;;;;;;;28.40;99.90;;;;;;5103841;27;19918;-68
2021/06/26 08:58:36;;;;;;;;;;;28.60;99.90;;;;;;5117947;27;19915;-69
2021/06/26 09:01:02;;;;;;;;;;;28.80;99.90;;;;;;5118443;27;20281;-69
2021/06/26 09:03:28;;;;;;;;;;;28.90;99.90;;;;;;5121070;27;19984;-68
2021/06/26 09:06:01;;;;;;;;;;;29.00;99.90;;;;;;5121859;27;19926;-68
2021/06/26 09:08:26;;;;;;;;;;;29.00;99.90;;;;;;5123136;27;20473;-67
2021/06/26 09:10:52;;;;;;;;;;;29.00;99.90;;;;;;5117083;27;20003;-68
2021/06/26 09:13:22;;;;;;;;;;;29.00;99.90;;;;;;5115382;27;20175;-68
2021/06/26 09:15:48;;;;;;;;;;;28.90;99.90;;;;;;5121107;27;19911;-67
2021/06/26 09:18:15;;;;;;;;;;;28.80;99.90;;;;;;5115921;27;20042;-67
2021/06/26 09:20:43;;;;;;;;;;;28.90;99.90;;;;;;5119200;27;19912;-68
2021/06/26 09:23:22;;;;;;;;;;;29.00;99.90;;;;;;5116418;27;19918;-69
2021/06/26 09:25:47;;;;;;;;;;;29.00;99.90;;;;;;5121409;27;20014;-69
2021/06/26 09:28:21;;;;;;;;;;;29.10;99.90;;;;;;5110375;28;19998;-69
2021/06/26 09:30:47;;;;;;;;;;;29.00;99.90;;;;;;5119022;27;19920;-68
2021/06/26 09:33:14;;;;;;;;;;;28.90;99.90;;;;;;5124271;27;19911;-68
2021/06/26 09:35:40;;;;;;;;;;;28.70;99.90;;;;;;5117204;27;20328;-68
2021/06/26 09:38:06;;;;;;;;;;;28.60;99.90;;;;;;5118622;27;19959;-68
2021/06/26 09:40:31;;;;;;;;;;;28.50;99.90;;;;;;5117591;27;19934;-68
2021/06/26 09:42:57;;;;;;;;;;;28.50;99.90;;;;;;5108186;28;20357;-68
2021/06/26 09:45:23;;;;;;;;;;;28.40;99.90;;;;;;5123421;27;19915;-68
2021/06/26 09:47:48;;;;;;;;;;;28.40;99.90;;;;;;5117218;27;20288;-68
2021/06/26 09:50:18;;;;;;;;;;;28.40;99.90;;;;;;5120886;27;19959;-68
2021/06/26 09:52:45;;;;;;;;;;;28.60;99.90;;;;;;5103250;27;20000;-68
2021/06/26 09:55:12;;;;;;;;;;;28.50;99.90;;;;;;5118050;27;19911;-68
2021/06/26 09:57:38;;;;;;;;;;;28.30;99.90;;;;;;5133143;27;19907;-68
2021/06/26 10:00:04;;;;;;;;;;;28.30;99.90;;;;;;5111466;27;20056;-66
2021/06/26 10:02:30;;;;;;;;;;;28.40;99.90;;;;;;5102922;27;19931;-66
2021/06/26 10:04:56;;;;;;;;;;;28.30;99.90;;;;;;5108646;27;19920;-66
2021/06/26 10:07:21;;;;;;;;;;;28.20;99.90;;;;;;5120895;27;20377;-68
2021/06/26 10:09:47;;;;;;;;;;;28.30;99.90;;;;;;5114832;27;19919;-67
2021/06/26 10:12:13;;;;;;;;;;;28.30;99.90;;;;;;5114347;27;19954;-66
2021/06/26 10:14:39;;;;;;;;;;;28.40;99.90;;;;;;5106742;27;20449;-67
2021/06/26 10:17:04;;;;;;;;;;;28.40;99.90;;;;;;5105018;28;20306;-68
2021/06/26 10:19:30;;;;;;;;;;;28.30;99.90;;;;;;5115288;27;19915;-67
2021/06/26 10:21:56;;;;;;;;;;;28.40;99.90;;;;;;5113067;27;19950;-67
2021/06/26 10:24:21;;;;;;;;;;;28.60;99.90;;;;;;5119934;27;20405;-67
2021/06/26 10:26:47;;;;;;;;;;;28.60;99.90;;;;;;5119731;27;20363;-67
2021/06/26 10:29:15;;;;;;;;;;;28.60;99.90;;;;;;5109459;27;19911;-67
2021/06/26 10:31:42;;;;;;;;;;;28.50;99.90;;;;;;5116923;27;20380;-67
2021/06/26 10:34:11;;;;;;;;;;;28.50;99.90;;;;;;5113397;27;20402;-68
2021/06/26 10:36:37;;;;;;;;;;;28.70;99.90;;;;;;5111986;27;19912;-68
2021/06/26 10:39:15;;;;;;;;;;;28.70;99.90;;;;;;5121612;27;19919;-67
2021/06/26 10:41:40;;;;;;;;;;;28.70;99.90;;;;;;5106108;28;19912;-66
2021/06/26 10:44:07;;;;;;;;;;;28.70;99.90;;;;;;5119158;27;20301;-67
2021/06/26 10:46:32;;;;;;;;;;;28.70;99.90;;;;;;5123196;27;19907;-67
2021/06/26 10:49:01;;;;;;;;;;;28.70;99.90;;;;;;5123048;27;19999;-66
2021/06/26 10:51:34;;;;;;;;;;;28.70;99.90;;;;;;5111317;27;19952;-67
2021/06/26 10:54:10;;;;;;;;;;;28.60;99.90;;;;;;5118521;27;20408;-67
2021/06/26 10:56:35;;;;;;;;;;;28.60;99.90;;;;;;5104183;28;19911;-68
2021/06/26 10:59:08;;;;;;;;;;;28.70;99.90;;;;;;5116013;27;19951;-68
2021/06/26 11:01:33;;;;;;;;;;;28.80;99.90;;;;;;5117324;27;19923;-67
2021/06/26 11:04:09;;;;;;;;;;;28.80;99.90;;;;;;5120544;27;20285;-67
2021/06/26 11:06:35;;;;;;;;;;;28.70;99.90;;;;;;5108623;28;19912;-68
2021/06/26 11:09:06;;;;;;;;;;;28.90;99.90;;;;;;5099484;28;19950;-67
2021/06/26 11:11:39;;;;;;;;;;;28.80;99.90;;;;;;5114393;27;19957;-67
2021/06/26 11:14:25;;;;;;;;;;;28.90;99.90;;;;;;5119361;27;19963;-66
2021/06/26 11:16:52;;;;;;;;;;;29.00;99.90;;;;;;5108912;27;19970;-67
2021/06/26 11:19:18;;;;;;;;;;;28.90;99.90;;;;;;5100850;28;19916;-66
2021/06/26 11:21:46;;;;;;;;;;;28.80;99.90;;;;;;5112242;27;19911;-69
2021/06/26 11:24:12;;;;;;;;;;;29.00;99.90;;;;;;5110933;27;20046;-66
2021/06/26 11:26:56;;;;;;;;;;;29.10;99.90;;;;;;5100662;28;19935;-66
2021/06/26 11:29:35;;;;;;;;;;;29.10;99.90;;;;;;5110869;27;20356;-68
2021/06/26 11:32:03;;;;;;;;;;;29.00;99.90;;;;;;5120810;27;19958;-68
2021/06/26 11:34:29;;;;;;;;;;;29.10;99.90;;;;;;5114302;27;19923;-68
2021/06/26 11:37:02;;;;;;;;;;;29.20;99.90;;;;;;5118589;28;19912;-66
2021/06/26 11:39:28;;;;;;;;;;;29.30;99.90;;;;;;5115017;27;19960;-68
2021/06/26 11:41:54;;;;;;;;;;;29.40;99.90;;;;;;5118497;28;20007;-68
2021/06/26 11:44:29;;;;;;;;;;;29.20;99.90;;;;;;5117364;28;20034;-67
2021/06/26 11:47:08;;;;;;;;;;;29.10;99.90;;;;;;5120494;28;20601;-67
2021/06/26 11:49:35;;;;;;;;;;;29.00;99.90;;;;;;5112039;27;20010;-68
2021/06/26 11:52:00;;;;;;;;;;;29.00;99.90;;;;;;5112018;28;19919;-68
2021/06/26 11:54:26;;;;;;;;;;;29.00;99.90;;;;;;5114137;28;19912;-67
2021/06/26 11:56:52;;;;;;;;;;;29.00;99.90;;;;;;5113024;28;19918;-67
2021/06/26 11:59:17;;;;;;;;;;;29.00;99.90;;;;;;5109315;28;19964;-68
2021/06/26 12:01:45;;;;;;;;;;;29.10;99.90;;;;;;5117957;28;20301;-66
2021/06/26 12:04:11;;;;;;;;;;;29.20;99.90;;;;;;5112701;28;19916;-67
2021/06/26 12:06:39;;;;;;;;;;;29.30;99.90;;;;;;5113033;28;20044;-66
2021/06/26 12:09:09;;;;;;;;;;;29.30;99.90;;;;;;5120919;27;19911;-67
2021/06/26 12:11:39;;;;;;;;;;;29.10;99.90;;;;;;5111609;28;19912;-67
2021/06/26 12:14:04;;;;;;;;;;;29.00;99.90;;;;;;5120901;28;19912;-68
2021/06/26 12:16:34;;;;;;;;;;;28.90;99.90;;;;;;5114573;28;20060;-67
2021/06/26 12:19:01;;;;;;;;;;;28.70;99.90;;;;;;5115964;27;19919;-67
2021/06/26 12:21:38;;;;;;;;;;;28.80;99.90;;;;;;5100055;28;19913;-67
2021/06/26 12:24:04;;;;;;;;;;;28.70;99.90;;;;;;5115603;28;20439;-67
2021/06/26 12:26:29;;;;;;;;;;;28.80;99.90;;;;;;5110876;28;19947;-67
2021/06/26 12:28:55;;;;;;;;;;;28.60;99.90;;;;;;5109780;28;19922;-68
2021/06/26 12:31:21;;;;;;;;;;;28.70;99.90;;;;;;5122517;27;19977;-68
2021/06/26 12:33:58;;;;;;;;;;;28.80;99.90;;;;;;5112831;28;19908;-68
2021/06/26 12:36:23;;;;;;;;;;;28.90;99.90;;;;;;5115171;27;19999;-68
2021/06/26 12:38:49;;;;;;;;;;;28.70;99.90;;;;;;5119735;27;20744;-67
2021/06/26 12:41:20;;;;;;;;;;;28.90;99.90;;;;;;5116835;27;20242;-68
2021/06/26 12:43:46;;;;;;;;;;;28.80;99.90;;;;;;5119835;27;19998;-68
2021/06/26 12:46:12;;;;;;;;;;;28.70;99.90;;;;;;5125630;27;19958;-68
2021/06/26 12:48:41;;;;;;;;;;;28.70;99.90;;;;;;5113407;27;19999;-67
2021/06/26 12:51:10;;;;;;;;;;;28.80;99.90;;;;;;5116527;27;19919;-68
2021/06/26 12:53:38;;;;;;;;;;;28.80;99.90;;;;;;5117912;27;19911;-67
2021/06/26 12:56:07;;;;;;;;;;;28.80;99.90;;;;;;5124027;27;19915;-69
2021/06/26 12:58:32;;;;;;;;;;;28.80;99.90;;;;;;5104247;27;19912;-68
2021/06/26 13:00:58;;;;;;;;;;;28.90;99.90;;;;;;5084499;28;19919;-68
2021/06/26 13:03:24;;;;;;;;;;;29.10;99.90;;;;;;5100091;27;19912;-68
2021/06/26 13:05:49;;;;;;;;;;;29.00;99.90;;;;;;5105787;27;19975;-66
2021/06/26 13:08:17;;;;;;;;;;;29.10;99.90;;;;;;5112989;27;19912;-68
2021/06/26 13:10:50;;;;;;;;;;;29.00;99.90;;;;;;5121251;27;19917;-67
2021/06/26 13:13:16;;;;;;;;;;;29.00;99.90;;;;;;5111578;28;20251;-67
2021/06/26 13:15:41;;;;;;;;;;;29.10;99.90;;;;;;5109567;27;19964;-67
2021/06/26 13:18:07;;;;;;;;;;;29.30;99.90;;;;;;5111371;27;19955;-68
2021/06/26 13:20:32;;;;;;;;;;;29.20;99.90;;;;;;5121603;27;19915;-67
2021/06/26 13:22:58;;;;;;;;;;;29.10;99.90;;;;;;5113820;27;19916;-67
2021/06/26 13:25:23;;;;;;;;;;;29.10;99.90;;;;;;5117968;27;19923;-67
2021/06/26 13:27:49;;;;;;;;;;;29.00;99.90;;;;;;5116364;27;19919;-68
2021/06/26 13:30:16;;;;;;;;;;;29.20;99.90;;;;;;5120455;27;19980;-67
2021/06/26 13:32:43;;;;;;;;;;;29.20;99.90;;;;;;5109503;27;19912;-67
2021/06/26 13:35:09;;;;;;;;;;;29.20;99.90;;;;;;5114401;27;19912;-67
2021/06/26 13:37:34;;;;;;;;;;;29.20;99.90;;;;;;5115204;27;19919;-66
2021/06/26 13:40:00;;;;;;;;;;;29.20;99.90;;;;;;5105451;27;20292;-67
2021/06/26 13:42:25;;;;;;;;;;;29.30;99.90;;;;;;5115099;27;20261;-67
2021/06/26 13:44:51;;;;;;;;;;;29.40;99.90;;;;;;5120211;27;19938;-68
2021/06/26 13:47:17;;;;;;;;;;;29.30;99.90;;;;;;5124687;27;19960;-67
2021/06/26 13:49:43;;;;;;;;;;;29.20;99.90;;;;;;5117476;27;19918;-68
2021/06/26 13:52:09;;;;;;;;;;;29.30;99.90;;;;;;5120394;27;20010;-67
2021/06/26 13:54:34;;;;;;;;;;;29.30;99.90;;;;;;5109554;27;19998;-66
2021/06/26 13:57:01;;;;;;;;;;;29.40;99.90;;;;;;5123118;27;19919;-68
2021/06/26 13:59:26;;;;;;;;;;;29.30;99.90;;;;;;5118572;27;19918;-67
2021/06/26 14:01:52;;;;;;;;;;;29.20;99.90;;;;;;5113034;27;19911;-68
2021/06/26 14:04:17;;;;;;;;;;;29.10;99.90;;;;;;5109483;27;19919;-70
2021/06/26 14:06:43;;;;;;;;;;;29.10;99.90;;;;;;5116072;27;20327;-69
2021/06/26 14:09:08;;;;;;;;;;;29.20;99.90;;;;;;5117812;27;19911;-70
2021/06/26 14:11:34;;;;;;;;;;;29.30;99.90;;;;;;5116020;27;19912;-69